createdAt,value
2022-10-10T00:02:33.122Z,3.97
2022-10-10T00:05:03.424Z,6.37
2022-10-10T00:07:33.832Z,5.60
2022-10-10T00:10:05.115Z,5.42
2022-10-10T00:12:35.674Z,7.15
2022-10-10T00:15:07.033Z,7.33
2022-10-10T00:17:37.445Z,9.00
2022-10-10T00:20:08.541Z,4.57
2022-10-10T00:22:39.180Z,7.42
2022-10-10T00:25:10.854Z,6.47
2022-10-10T00:27:41.428Z,6.22
2022-10-10T00:30:12.231Z,5.50
2022-10-10T00:32:42.654Z,4.70
2022-10-10T00:35:12.990Z,8.17
2022-10-10T00:37:43.371Z,7.30
2022-10-10T00:40:13.835Z,4.13
2022-10-10T00:42:44.518Z,6.05
2022-10-10T00:45:24.024Z,5.77
2022-10-10T00:48:00.157Z,4.05
2022-10-10T00:50:32.269Z,5.37
2022-10-10T00:53:05.041Z,5.13
2022-10-10T00:55:37.025Z,6.58
2022-10-10T00:58:08.922Z,4.27
2022-10-10T01:00:39.404Z,5.08
2022-10-10T01:03:09.804Z,4.10
2022-10-10T01:05:42.231Z,4.70
2022-10-10T01:08:12.981Z,5.27
2022-10-10T01:11:03.044Z,6.93
2022-10-10T01:13:45.678Z,6.33
2022-10-10T01:16:35.930Z,5.87
2022-10-10T01:19:42.787Z,4.50
2022-10-10T01:22:31.186Z,8.68
2022-10-10T01:25:04.733Z,7.53
2022-10-10T01:27:46.354Z,5.77
2022-10-10T01:30:19.819Z,6.63
2022-10-10T01:32:56.461Z,3.77
2022-10-10T01:35:47.083Z,4.40
2022-10-10T01:38:50.634Z,7.37
2022-10-10T01:41:26.813Z,4.60
2022-10-10T01:43:58.980Z,5.15
2022-10-10T01:46:29.334Z,5.30
2022-10-10T01:49:00.561Z,6.23
2022-10-10T01:51:51.893Z,5.05
2022-10-10T01:54:43.123Z,4.42
2022-10-10T01:57:28.400Z,4.97
2022-10-10T02:00:19.048Z,7.93
2022-10-10T02:02:58.091Z,5.60
2022-10-10T02:05:31.545Z,3.90
2022-10-10T02:08:07.485Z,9.05
2022-10-10T02:10:43.665Z,4.08
2022-10-10T02:13:16.428Z,4.63
2022-10-10T02:15:52.672Z,3.87
2022-10-10T02:18:26.151Z,4.87
2022-10-10T02:20:57.599Z,6.30
2022-10-10T02:23:28.566Z,7.47
2022-10-10T02:25:59.716Z,6.15
2022-10-10T02:28:53.014Z,6.13
2022-10-10T02:31:32.155Z,4.33
2022-10-10T02:34:14.424Z,6.37
2022-10-10T02:36:47.885Z,3.80
2022-10-10T02:39:20.627Z,6.25
2022-10-10T02:41:53.346Z,6.50
2022-10-10T02:44:25.624Z,5.33
2022-10-10T02:46:56.066Z,6.17
2022-10-10T02:49:31.641Z,5.15
2022-10-10T02:52:02.221Z,5.40
2022-10-10T02:54:33.283Z,5.77
2022-10-10T02:57:03.621Z,7.37
2022-10-10T02:59:33.949Z,6.40
2022-10-10T03:02:04.291Z,8.90
2022-10-10T03:04:36.139Z,6.67
2022-10-10T03:07:06.666Z,5.57
2022-10-10T03:09:37.077Z,7.10
2022-10-10T03:12:07.484Z,4.60
2022-10-10T03:14:37.917Z,4.50
2022-10-10T03:17:08.370Z,5.83
2022-10-10T03:19:39.012Z,5.00
2022-10-10T03:22:11.340Z,6.65
2022-10-10T03:24:41.640Z,5.90
2022-10-10T03:27:12.012Z,7.03
2022-10-10T03:29:42.386Z,5.07
2022-10-10T03:32:12.913Z,7.43
2022-10-10T03:34:43.200Z,5.90
2022-10-10T03:37:13.568Z,7.25
2022-10-10T03:39:43.943Z,5.03
2022-10-10T03:42:14.267Z,4.70
2022-10-10T03:44:44.621Z,7.60
2022-10-10T03:47:14.967Z,5.87
2022-10-10T03:49:45.295Z,7.90
2022-10-10T03:52:15.760Z,9.40
2022-10-10T03:54:46.142Z,5.67
2022-10-10T03:57:16.505Z,4.73
2022-10-10T03:59:46.897Z,7.37
2022-10-10T04:02:17.470Z,5.70
2022-10-10T04:04:48.070Z,4.13
2022-10-10T04:07:18.421Z,6.15
2022-10-10T04:09:48.774Z,7.05
2022-10-10T04:12:19.213Z,8.28
2022-10-10T04:14:49.606Z,5.90
2022-10-10T04:17:19.951Z,4.97
2022-10-10T04:19:50.328Z,4.93
2022-10-10T04:22:20.705Z,6.30
2022-10-10T04:24:51.123Z,6.30
2022-10-10T04:27:21.552Z,7.93
2022-10-10T04:29:52.043Z,5.83
2022-10-10T04:32:22.393Z,5.60
2022-10-10T04:34:52.816Z,5.03
2022-10-10T04:37:23.258Z,5.30
2022-10-10T04:39:53.728Z,5.92
2022-10-10T04:42:24.248Z,5.60
2022-10-10T04:44:54.595Z,6.67
2022-10-10T04:47:25.376Z,5.83
2022-10-10T04:49:55.837Z,6.00
2022-10-10T04:52:28.824Z,6.67
2022-10-10T04:54:59.738Z,7.57
2022-10-10T04:57:30.204Z,5.73
2022-10-10T05:00:00.668Z,6.50
2022-10-10T05:02:31.024Z,10.37
2022-10-10T05:05:01.362Z,5.70
2022-10-10T05:07:31.647Z,6.53
2022-10-10T05:10:02.435Z,4.80
2022-10-10T05:12:33.001Z,6.47
2022-10-10T05:15:03.428Z,6.93
2022-10-10T05:17:33.987Z,7.70
2022-10-10T05:20:05.121Z,5.33
2022-10-10T05:22:35.647Z,6.00
2022-10-10T05:25:06.771Z,8.45
2022-10-10T05:27:37.152Z,7.33
2022-10-10T05:30:08.089Z,4.93
2022-10-10T05:32:38.825Z,4.27
2022-10-10T05:35:10.004Z,5.63
2022-10-10T05:37:40.396Z,6.83
2022-10-10T05:40:11.433Z,7.53
2022-10-10T05:42:41.820Z,5.33
2022-10-10T05:45:12.289Z,6.57
2022-10-10T05:47:44.374Z,7.43
2022-10-10T05:50:32.828Z,5.33
2022-10-10T05:53:03.569Z,6.80
2022-10-10T05:55:35.433Z,9.30
2022-10-10T05:58:06.771Z,6.50
2022-10-10T06:00:37.344Z,7.50
2022-10-10T06:03:08.591Z,6.43
2022-10-10T06:05:39.057Z,8.40
2022-10-10T06:08:12.043Z,4.47
2022-10-10T06:10:44.936Z,9.88
2022-10-10T06:13:23.058Z,7.03
2022-10-10T06:15:52.166Z,8.40
2022-10-10T06:18:22.548Z,7.40
2022-10-10T06:20:53.090Z,7.53
2022-10-10T06:23:23.434Z,5.75
2022-10-10T06:25:56.430Z,8.60
2022-10-10T06:28:25.828Z,8.27
2022-10-10T06:30:57.719Z,7.20
2022-10-10T06:33:28.128Z,7.43
2022-10-10T06:35:58.992Z,11.60
2022-10-10T06:38:29.384Z,8.57
2022-10-10T06:41:04.433Z,9.20
2022-10-10T06:43:35.998Z,8.30
2022-10-10T06:46:06.542Z,8.08
2022-10-10T06:48:36.881Z,7.73
2022-10-10T06:51:10.531Z,7.57
2022-10-10T06:53:40.914Z,17.00
2022-10-10T06:56:15.010Z,8.50
2022-10-10T06:58:45.738Z,8.37
2022-10-10T07:01:21.541Z,6.57
2022-10-10T07:03:51.958Z,7.03
2022-10-10T07:06:22.800Z,6.17
2022-10-10T07:08:53.479Z,6.33
2022-10-10T07:11:24.487Z,6.73
2022-10-10T07:13:54.819Z,6.57
2022-10-10T07:16:25.957Z,7.57
2022-10-10T07:18:56.305Z,6.67
2022-10-10T07:21:27.715Z,8.75
2022-10-10T07:23:58.189Z,6.92
2022-10-10T07:26:30.230Z,10.13
2022-10-10T07:29:00.601Z,6.40
2022-10-10T07:31:50.033Z,6.43
2022-10-10T07:34:20.500Z,5.90
2022-10-10T07:36:51.057Z,6.67
2022-10-10T07:39:22.871Z,6.77
2022-10-10T07:41:53.509Z,7.37
2022-10-10T07:44:25.585Z,8.03
2022-10-10T07:46:56.066Z,5.67
2022-10-10T07:49:26.490Z,5.25
2022-10-10T07:51:58.894Z,5.37
2022-10-10T07:54:30.183Z,6.50
2022-10-10T07:57:00.564Z,5.67
2022-10-10T07:59:30.864Z,7.10
2022-10-10T08:02:01.451Z,6.87
2022-10-10T08:04:32.039Z,8.53
2022-10-10T08:07:02.471Z,4.57
2022-10-10T08:09:32.899Z,6.37
2022-10-10T08:12:03.364Z,6.50
2022-10-10T08:14:33.601Z,5.78
2022-10-10T08:17:03.960Z,5.83
2022-10-10T08:19:34.622Z,4.60
2022-10-10T08:22:05.441Z,8.17
2022-10-10T08:24:35.843Z,5.10
2022-10-10T08:27:06.164Z,6.50
2022-10-10T08:29:36.463Z,6.55
2022-10-10T08:32:06.785Z,6.47
2022-10-10T08:34:37.177Z,6.17
2022-10-10T08:37:07.598Z,7.83
2022-10-10T08:39:37.985Z,6.90
2022-10-10T08:42:10.107Z,7.05
2022-10-10T08:44:52.452Z,7.08
2022-10-10T08:47:47.627Z,6.53
2022-10-10T08:50:37.470Z,6.12
2022-10-10T08:53:36.933Z,5.95
2022-10-10T08:56:08.407Z,5.45
2022-10-10T08:58:41.508Z,8.55
2022-10-10T09:01:19.687Z,6.03
2022-10-10T09:03:53.667Z,5.25
2022-10-10T09:06:58.838Z,5.75
2022-10-10T09:09:44.730Z,4.55
2022-10-10T09:12:27.571Z,5.45
2022-10-10T09:15:03.782Z,4.42
2022-10-10T09:17:46.413Z,4.85
2022-10-10T09:20:28.758Z,7.20
2022-10-10T09:23:18.933Z,5.37
2022-10-10T09:25:58.435Z,4.47
2022-10-10T09:28:49.713Z,5.20
2022-10-10T09:31:25.999Z,4.67
2022-10-10T09:34:02.416Z,5.92
2022-10-10T09:36:36.926Z,4.28
2022-10-10T09:39:22.119Z,5.35
2022-10-10T09:42:01.181Z,5.95
2022-10-10T09:44:32.895Z,6.28
2022-10-10T09:47:03.302Z,4.45
2022-10-10T09:49:35.760Z,5.92
2022-10-10T09:52:21.342Z,3.47
2022-10-10T09:54:58.371Z,4.40
2022-10-10T09:57:40.306Z,4.08
2022-10-10T10:00:23.787Z,5.55
2022-10-10T10:03:12.926Z,5.92
2022-10-10T10:05:46.647Z,5.05
2022-10-10T10:08:22.797Z,6.58
2022-10-10T10:10:55.295Z,6.00
2022-10-10T10:13:37.762Z,5.50
2022-10-10T10:16:14.278Z,5.65
2022-10-10T10:18:47.306Z,4.60
2022-10-10T10:21:24.901Z,5.42
2022-10-10T10:23:58.827Z,6.85
2022-10-10T10:26:44.363Z,4.58
2022-10-10T10:29:30.010Z,4.80
2022-10-10T10:32:12.255Z,5.22
2022-10-10T10:35:07.669Z,4.33
2022-10-10T10:38:00.934Z,3.62
2022-10-10T10:40:40.339Z,4.45
2022-10-10T10:43:22.606Z,3.72
2022-10-10T10:46:22.178Z,3.62
2022-10-10T10:49:02.174Z,5.25
2022-10-10T10:51:47.585Z,3.37
2022-10-10T10:54:40.516Z,5.95
2022-10-10T10:57:45.372Z,3.55
2022-10-10T11:01:20.269Z,6.75
2022-10-10T11:03:27.861Z,4.17
2022-10-10T11:05:45.402Z,5.33
2022-10-10T11:08:19.229Z,5.72
2022-10-10T11:10:52.694Z,4.15
2022-10-10T11:13:26.189Z,3.62
2022-10-10T11:16:06.493Z,5.03
2022-10-10T11:18:37.572Z,3.85
2022-10-10T11:21:11.016Z,6.60
2022-10-10T11:23:50.679Z,3.50
2022-10-10T11:26:26.545Z,3.95
2022-10-10T11:29:02.766Z,4.47
2022-10-10T11:31:44.826Z,5.30
2022-10-10T11:34:18.215Z,5.87
2022-10-10T11:36:50.919Z,3.72
2022-10-10T11:39:30.162Z,5.90
2022-10-10T11:42:09.549Z,5.37
2022-10-10T11:44:42.958Z,5.78
2022-10-10T11:47:42.068Z,3.67
2022-10-10T11:50:33.913Z,3.87
2022-10-10T11:53:16.348Z,4.42
2022-10-10T11:56:02.052Z,3.12
2022-10-10T11:58:48.988Z,3.60
2022-10-10T12:01:28.078Z,4.28
2022-10-10T12:03:58.563Z,4.37
2022-10-10T12:06:32.006Z,3.95
2022-10-10T12:09:17.573Z,5.42
2022-10-10T12:11:50.940Z,4.55
2022-10-10T12:14:22.993Z,6.15
2022-10-10T12:16:53.564Z,5.47
2022-10-10T12:19:27.281Z,5.12
2022-10-10T12:22:10.156Z,4.95
2022-10-10T12:25:00.310Z,5.83
2022-10-10T12:27:45.222Z,5.33
2022-10-10T12:30:21.623Z,5.87
2022-10-10T12:32:54.587Z,4.00
2022-10-10T12:35:34.302Z,5.80
2022-10-10T12:38:10.638Z,5.15
2022-10-10T12:41:05.605Z,5.50
2022-10-10T12:43:45.602Z,4.12
2022-10-10T12:46:19.343Z,5.17
2022-10-10T12:49:04.813Z,6.60
2022-10-10T12:51:37.046Z,6.60
2022-10-10T12:54:08.437Z,7.65
2022-10-10T12:56:41.779Z,6.53
2022-10-10T12:59:21.203Z,3.85
2022-10-10T13:01:55.286Z,4.83
2022-10-10T13:04:28.330Z,4.17
2022-10-10T13:07:01.175Z,3.85
2022-10-10T13:09:35.708Z,4.08
2022-10-10T13:12:07.987Z,3.90
2022-10-10T13:14:44.429Z,4.33
2022-10-10T13:17:24.135Z,5.53
2022-10-10T13:19:55.948Z,3.95
2022-10-10T13:22:27.860Z,5.10
2022-10-10T13:25:00.532Z,4.10
2022-10-10T13:27:34.953Z,6.72
2022-10-10T13:30:07.871Z,4.28
2022-10-10T13:32:38.909Z,4.67
2022-10-10T13:35:16.067Z,5.00
2022-10-10T13:37:50.344Z,5.72
2022-10-10T13:40:21.605Z,4.05
2022-10-10T13:42:52.628Z,4.53
2022-10-10T13:45:31.906Z,4.53
2022-10-10T13:50:58.124Z,5.25
2022-10-10T13:53:33.179Z,8.98
2022-10-10T13:56:31.551Z,4.83
2022-10-10T13:59:07.685Z,6.33
2022-10-10T14:01:49.977Z,5.67
2022-10-10T14:04:31.994Z,8.35
2022-10-10T14:07:13.985Z,5.05
2022-10-10T14:09:53.868Z,4.47
2022-10-10T14:12:35.209Z,8.55
2022-10-10T14:15:07.542Z,4.92
2022-10-10T14:17:37.905Z,8.73
2022-10-10T14:20:11.288Z,5.12
2022-10-10T14:22:41.722Z,8.18
2022-10-10T14:25:12.038Z,6.53
2022-10-10T14:27:42.489Z,5.17
2022-10-10T14:30:15.013Z,6.25
2022-10-10T14:32:45.407Z,5.50
2022-10-10T14:35:15.979Z,6.87
2022-10-10T14:37:46.614Z,6.22
2022-10-10T14:40:22.714Z,9.33
2022-10-10T14:42:53.189Z,7.87
2022-10-10T14:45:23.627Z,6.50
2022-10-10T14:47:54.441Z,7.60
2022-10-10T14:50:27.886Z,9.78
2022-10-10T14:52:58.187Z,8.65
2022-10-10T14:55:28.617Z,7.58
2022-10-10T14:58:00.704Z,6.53
2022-10-10T15:00:31.116Z,4.30
2022-10-10T15:03:03.310Z,6.72
2022-10-10T15:05:33.675Z,14.18
2022-10-10T15:08:04.405Z,8.80
2022-10-10T15:10:35.579Z,5.87
2022-10-10T15:13:06.099Z,7.12
2022-10-10T15:15:36.519Z,6.12
2022-10-10T15:18:20.906Z,7.33
2022-10-10T15:20:39.306Z,5.28
2022-10-10T15:23:10.640Z,6.28
2022-10-10T15:25:44.574Z,11.00
2022-10-10T15:28:14.910Z,11.00
2022-10-10T15:30:48.186Z,10.90
2022-10-10T15:33:18.960Z,10.43
2022-10-10T15:36:08.920Z,14.47
2022-10-10T15:38:31.089Z,5.40
2022-10-10T15:41:04.244Z,9.03
2022-10-10T15:43:47.163Z,6.65
2022-10-10T15:46:17.560Z,6.55
2022-10-10T15:48:48.042Z,4.92
2022-10-10T15:51:18.958Z,7.45
2022-10-10T15:53:50.942Z,8.68
2022-10-10T15:56:21.245Z,10.30
2022-10-10T15:58:57.047Z,9.50
2022-10-10T16:01:28.504Z,11.68
2022-10-10T16:03:59.170Z,10.08
2022-10-10T16:06:29.746Z,5.95
2022-10-10T16:09:23.619Z,7.45
2022-10-10T16:11:35.701Z,5.97
2022-10-10T16:14:06.116Z,6.62
2022-10-10T16:16:36.621Z,7.40
2022-10-10T16:19:08.462Z,6.47
2022-10-10T16:21:38.912Z,6.53
2022-10-10T16:24:10.868Z,7.17
2022-10-10T16:26:41.484Z,5.67
2022-10-10T16:29:12.601Z,6.65
2022-10-10T16:31:43.314Z,6.00
2022-10-10T16:34:15.537Z,6.92
2022-10-10T16:36:45.875Z,5.20
2022-10-10T16:39:16.261Z,7.83
2022-10-10T16:41:48.447Z,9.63
2022-10-10T16:44:18.994Z,8.08
2022-10-10T16:46:49.516Z,6.65
2022-10-10T16:49:21.377Z,7.03
2022-10-10T16:51:51.872Z,8.95
2022-10-10T16:54:22.231Z,6.45
2022-10-10T16:56:52.510Z,8.45
2022-10-10T16:59:22.821Z,6.12
2022-10-10T17:01:53.252Z,24.45
2022-10-10T17:04:25.328Z,47.38
2022-10-10T17:06:55.857Z,38.30
2022-10-10T17:09:26.303Z,23.12
2022-10-10T17:11:56.890Z,15.70
2022-10-10T17:14:27.284Z,9.25
2022-10-10T17:17:13.925Z,16.50
2022-10-10T17:19:29.768Z,9.10
2022-10-10T17:22:00.618Z,8.83
2022-10-10T17:24:31.002Z,11.45
2022-10-10T17:27:01.569Z,10.55
2022-10-10T17:29:31.824Z,6.72
2022-10-10T17:32:06.215Z,8.93
2022-10-10T17:34:34.316Z,9.83
2022-10-10T17:37:05.133Z,8.98
2022-10-10T17:39:35.438Z,7.40
2022-10-10T17:42:06.158Z,7.78
2022-10-10T17:44:43.336Z,24.95
2022-10-10T17:47:08.670Z,110.30
2022-10-10T17:49:40.673Z,69.30
2022-10-10T17:52:11.011Z,9.88
2022-10-10T17:54:41.411Z,12.30
2022-10-10T17:57:11.821Z,15.38
2022-10-10T17:59:42.345Z,10.10
2022-10-10T18:02:20.201Z,13.22
2022-10-10T18:04:50.757Z,12.18
2022-10-10T18:07:21.334Z,9.38
2022-10-10T18:09:52.686Z,11.43
2022-10-10T18:12:23.105Z,12.60
2022-10-10T18:14:53.555Z,10.82
2022-10-10T18:17:24.060Z,7.53
2022-10-10T18:19:54.379Z,9.98
2022-10-10T18:22:24.840Z,16.50
2022-10-10T18:24:55.238Z,13.50
2022-10-10T18:27:26.841Z,9.53
2022-10-10T18:29:57.289Z,9.75
2022-10-10T18:32:27.775Z,11.20
2022-10-10T18:34:58.250Z,9.10
2022-10-10T18:37:28.676Z,10.03
2022-10-10T18:39:58.966Z,9.18
2022-10-10T18:42:29.353Z,8.03
2022-10-10T18:44:59.734Z,9.88
2022-10-10T18:47:30.222Z,7.90
2022-10-10T18:50:00.468Z,11.12
2022-10-10T18:52:30.879Z,11.53
2022-10-10T18:55:01.204Z,10.50
2022-10-10T18:57:31.621Z,8.90
2022-10-10T19:00:01.990Z,9.83
2022-10-10T19:39:26.296Z,8.98
2022-10-10T19:41:56.931Z,10.70
2022-10-10T19:44:27.255Z,11.38
2022-10-10T19:46:59.556Z,10.15
2022-10-10T19:49:30.926Z,12.85
2022-10-10T19:52:01.290Z,9.40
2022-10-10T19:54:31.637Z,13.35
2022-10-10T19:57:02.830Z,13.40
2022-10-10T19:59:33.556Z,12.07
2022-10-10T20:02:04.106Z,11.88
2022-10-10T20:04:34.733Z,11.40
2022-10-10T20:07:05.173Z,10.32
2022-10-10T20:09:35.580Z,9.15
2022-10-10T20:12:05.993Z,9.35
2022-10-10T20:14:36.550Z,8.88
2022-10-10T20:17:06.852Z,9.18
2022-10-10T20:19:37.214Z,8.30
2022-10-10T20:22:07.910Z,26.82
2022-10-10T20:24:38.349Z,12.33
2022-10-10T20:27:08.788Z,8.08
2022-10-10T20:29:39.443Z,8.90
2022-10-10T20:32:09.843Z,7.10
2022-10-10T20:34:40.409Z,8.73
2022-10-10T20:37:10.852Z,8.40
2022-10-10T20:39:41.303Z,9.80
2022-10-10T20:42:11.961Z,6.50
2022-10-10T20:44:42.382Z,8.03
2022-10-10T20:47:13.348Z,8.38
2022-10-10T20:49:43.752Z,6.40
2022-10-10T20:52:14.234Z,8.65
2022-10-10T20:54:44.630Z,7.92
2022-10-10T20:57:15.027Z,9.13
2022-10-10T20:59:45.402Z,6.78
2022-10-10T21:02:19.272Z,11.12
2022-10-10T21:04:47.744Z,10.32
2022-10-10T21:07:18.055Z,8.48
2022-10-10T21:09:51.207Z,7.80
2022-10-10T21:12:21.802Z,6.78
2022-10-10T21:14:52.133Z,7.45
2022-10-10T21:17:22.609Z,7.37
2022-10-10T21:19:53.171Z,6.92
2022-10-10T21:22:24.087Z,8.33
2022-10-10T21:24:54.636Z,7.95
2022-10-10T21:27:24.997Z,5.70
2022-10-10T21:29:55.376Z,7.85
2022-10-10T21:32:26.455Z,7.33
2022-10-10T21:34:58.118Z,7.45
2022-10-10T21:37:29.463Z,9.98
2022-10-10T21:39:59.856Z,6.97
2022-10-10T21:42:30.185Z,7.92
2022-10-10T21:45:00.496Z,9.15
2022-10-10T21:47:30.931Z,8.73
2022-10-10T21:50:01.480Z,7.35
2022-10-10T21:52:31.863Z,7.67
2022-10-10T21:55:02.259Z,7.12
2022-10-10T21:57:32.806Z,8.83
2022-10-10T22:00:03.186Z,6.72
2022-10-10T22:02:33.527Z,8.58
2022-10-10T22:05:03.914Z,5.80
2022-10-10T22:07:34.610Z,9.48
2022-10-10T22:10:07.230Z,6.15
2022-10-10T22:12:37.532Z,9.68
2022-10-10T22:15:08.723Z,8.05
2022-10-10T22:17:40.141Z,7.97
2022-10-10T22:20:12.244Z,7.97
2022-10-10T22:22:43.474Z,6.90
2022-10-10T22:25:16.880Z,7.92
2022-10-10T22:27:47.304Z,8.45
2022-10-10T22:30:17.671Z,10.75
2022-10-10T22:32:48.122Z,10.68
2022-10-10T22:35:18.624Z,9.60
2022-10-10T22:37:48.903Z,10.25
2022-10-10T22:40:21.101Z,7.60
2022-10-10T22:42:51.606Z,7.42
2022-10-10T22:45:22.765Z,9.98
2022-10-10T22:47:53.442Z,9.75
2022-10-10T22:50:23.864Z,9.10
2022-10-10T22:52:54.225Z,9.25
2022-10-10T22:55:24.871Z,9.03
2022-10-10T22:57:55.286Z,6.78
2022-10-10T23:00:25.743Z,7.60
2022-10-10T23:02:58.145Z,7.08
2022-10-10T23:05:28.617Z,6.05
2022-10-10T23:07:59.016Z,8.18
2022-10-10T23:10:29.640Z,10.82
2022-10-10T23:13:00.033Z,5.47
2022-10-10T23:15:30.476Z,5.95
2022-10-10T23:18:00.887Z,5.92
2022-10-10T23:20:31.354Z,4.70
2022-10-10T23:23:01.805Z,7.42
2022-10-10T23:25:32.581Z,5.17
2022-10-10T23:28:02.957Z,5.33
2022-10-10T23:30:33.409Z,6.28
2022-10-10T23:33:03.847Z,6.37
2022-10-10T23:35:35.012Z,4.67
2022-10-10T23:38:05.455Z,4.25
2022-10-10T23:40:36.123Z,5.17
2022-10-10T23:43:07.345Z,5.95
2022-10-10T23:45:40.830Z,5.33
2022-10-10T23:48:11.177Z,5.28
2022-10-10T23:50:41.505Z,4.85
2022-10-10T23:53:12.543Z,5.08
2022-10-10T23:55:43.066Z,3.67
2022-10-10T23:58:13.372Z,6.10
